Time;durP1;ratioP1;P1;durP2;ratioP2;P2;SDS_P1;SDS_P2;PMS_P1;PMS_P2;Temp;Humidity;BMP_temperature;BMP_pressure;BME280_temperature;BME280_humidity;BME280_pressure;Samples;Min_cycle;Max_cycle;Signal;HPM_P1;HPM_P2
2022/11/13 00:01:47;;;;;;;34.50;27.67;;;;;;;5.22;100.00;67349.69;4990401;28;20046;-78
2022/11/13 00:04:12;;;;;;;34.80;29.15;;;;;;;5.22;100.00;67354.97;4991358;28;20046;-78
2022/11/13 00:06:38;;;;;;;46.60;35.95;;;;;;;5.17;100.00;67349.88;4990573;28;20057;-77
2022/11/13 00:09:03;;;;;;;35.25;30.23;;;;;;;5.15;100.00;67348.19;4990848;28;20173;-78
2022/11/13 00:11:28;;;;;;;34.53;27.95;;;;;;;5.13;100.00;67348.56;4992060;28;20062;-78
2022/11/13 00:13:54;;;;;;;36.38;29.30;;;;;;;5.08;100.00;67345.53;4990772;28;20046;-77
2022/11/13 00:16:20;;;;;;;35.25;28.90;;;;;;;5.13;100.00;67348.00;4990907;28;20049;-78
2022/11/13 00:18:45;;;;;;;26.67;21.75;;;;;;;;;;4990423;28;20124;-76
2022/11/13 00:21:16;;;;;;;31.25;26.92;;;;;;;5.31;100.00;67370.41;4990501;28;20074;-77
2022/11/13 00:23:42;;;;;;;36.63;29.30;;;;;;;5.19;100.00;67352.69;4987889;28;20433;-77
2022/11/13 00:26:19;;;;;;;37.83;29.10;;;;;;;5.14;100.00;67351.75;4995518;28;20060;-78
2022/11/13 00:28:44;;;;;;;36.25;30.27;;;;;;;;;;4992231;28;20042;-76
2022/11/13 00:31:13;;;;;;;35.90;28.30;;;;;;;5.15;100.00;67348.19;4989899;28;20042;-77
2022/11/13 00:33:39;;;;;;;36.72;29.77;;;;;;;5.09;100.00;67341.41;4986596;28;20101;-76
2022/11/13 00:36:09;;;;;;;36.10;30.75;;;;;;;5.09;100.00;67341.41;4988465;28;20892;-77
2022/11/13 00:38:34;;;;;;;36.40;29.50;;;;;;;;;;4988512;28;20117;-78
2022/11/13 00:41:00;;;;;;;40.00;31.80;;;;;;;5.07;100.00;67339.16;4990092;28;20130;-77
2022/11/13 00:43:26;;;;;;;36.95;30.35;;;;;;;5.06;100.00;67337.44;4991037;28;20490;-77
2022/11/13 00:45:51;;;;;;;35.38;28.27;;;;;;;;;;4989829;28;20512;-78
2022/11/13 00:48:17;;;;;;;35.30;29.42;;;;;;;5.01;100.00;67331.81;4991187;28;20046;-78
2022/11/13 00:50:43;;;;;;;34.40;28.63;;;;;;;4.94;100.00;67327.09;4987516;28;20046;-78
2022/11/13 00:53:08;;;;;;;38.47;30.23;;;;;;;4.92;100.00;67322.78;4990233;28;20048;-78
2022/11/13 00:55:33;;;;;;;35.72;29.77;;;;;;;4.98;100.00;67329.00;4990121;28;20506;-77
2022/11/13 00:57:59;;;;;;;34.05;28.92;;;;;;;4.95;100.00;67325.59;4990080;28;20133;-78
2022/11/13 01:00:24;;;;;;;35.00;27.20;;;;;;;;;;4992799;28;20046;-78
2022/11/13 01:02:49;;;;;;;37.08;29.45;;;;;;;4.86;100.00;67318.06;5007451;28;20043;-76
2022/11/13 01:05:15;;;;;;;38.80;29.77;;;;;;;4.90;100.00;67319.94;4999759;28;20121;-77
2022/11/13 01:07:40;;;;;;;37.72;30.23;;;;;;;4.91;100.00;67321.06;4988792;28;20137;-78
2022/11/13 01:10:07;;;;;;;39.00;30.95;;;;;;;4.93;100.00;67318.63;4990902;28;20077;-76
2022/11/13 01:12:32;;;;;;;31.98;27.48;;;;;;;4.85;100.00;67317.50;4984690;28;20075;-78
2022/11/13 01:14:58;;;;;;;35.33;29.42;;;;;;;4.81;100.00;67310.34;4985828;28;20038;-76
2022/11/13 01:17:24;;;;;;;35.92;29.88;;;;;;;4.82;100.00;67314.09;4982415;28;20575;-78
2022/11/13 01:19:49;;;;;;;36.15;30.40;;;;;;;4.74;100.00;67297.72;4984103;28;20634;-78
2022/11/13 01:22:14;;;;;;;35.67;28.33;;;;;;;4.74;100.00;67305.06;4987189;28;20046;-78
2022/11/13 01:24:40;;;;;;;35.20;28.70;;;;;;;4.70;100.00;67301.13;4987660;28;20185;-78
2022/11/13 01:27:05;;;;;;;39.53;29.52;;;;;;;4.67;100.00;67294.53;4986641;28;20046;-75
2022/11/13 01:29:32;;;;;;;37.63;30.05;;;;;;;4.67;100.00;67295.09;4989851;28;20073;-78
2022/11/13 01:31:58;;;;;;;40.47;30.50;;;;;;;4.72;100.00;67300.19;4985469;28;20050;-78
2022/11/13 01:34:23;;;;;;;33.35;28.42;;;;;;;;;;4991148;28;20058;-78
2022/11/13 01:36:49;;;;;;;37.85;30.80;;;;;;;4.66;100.00;67296.03;4982242;28;20038;-78
2022/11/13 01:39:15;;;;;;;38.50;30.25;;;;;;;4.66;100.00;67299.25;4983660;28;20121;-77
2022/11/13 01:41:40;;;;;;;37.83;30.00;;;;;;;4.62;100.00;67289.44;4988519;28;20401;-78
2022/11/13 01:44:12;;;;;;;37.30;30.45;;;;;;;4.59;100.00;67288.69;4988376;28;20062;-78
2022/11/13 01:46:44;;;;;;;39.80;31.50;;;;;;;4.65;100.00;67294.91;4988489;28;20121;-76
2022/11/13 01:49:09;;;;;;;36.67;29.58;;;;;;;4.62;100.00;67289.44;4987656;28;20053;-78
2022/11/13 01:51:53;;;;;;;38.78;30.55;;;;;;;4.63;100.00;67290.00;5006860;28;20053;-77
2022/11/13 01:54:23;;;;;;;37.85;31.77;;;;;;;4.62;100.00;67288.91;4992477;28;20041;-77
2022/11/13 01:56:49;;;;;;;40.28;31.92;;;;;;;4.63;100.00;67290.59;4987654;28;20096;-78
2022/11/13 01:59:19;;;;;;;39.20;30.83;;;;;;;4.62;100.00;67292.09;4987861;28;20034;-78
2022/11/13 02:01:44;;;;;;;36.40;31.00;;;;;;;4.71;100.00;67304.31;4990018;28;20046;-78
2022/11/13 02:04:09;;;;;;;36.13;29.88;;;;;;;;;;4986476;28;20089;-77
2022/11/13 02:06:55;;;;;;;37.35;31.73;;;;;;;4.69;100.00;67297.38;4990818;28;20054;-79
2022/11/13 02:09:25;;;;;;;38.35;31.85;;;;;;;4.75;100.00;67304.13;4989546;28;20527;-78
2022/11/13 02:11:51;;;;;;;36.42;31.13;;;;;;;4.80;100.00;67311.84;4985493;28;20048;-78
2022/11/13 02:14:18;;;;;;;39.10;32.40;;;;;;;4.92;100.00;67322.19;4990337;28;20042;-78
2022/11/13 02:16:47;;;;;;;38.00;30.00;;;;;;;5.01;100.00;67332.38;4993244;28;20050;-79
2022/11/13 02:19:19;;;;;;;36.50;30.07;;;;;;;5.00;100.00;67333.88;4991715;28;20458;-79
2022/11/13 02:22:10;;;;;;;33.80;28.05;;;;;;;4.92;100.00;67325.41;4994441;28;20278;-78
2022/11/13 02:24:40;;;;;;;38.03;29.85;;;;;;;5.04;100.00;67329.94;4978587;28;20506;-79
2022/11/13 02:27:09;;;;;;;35.22;29.13;;;;;;;5.03;100.00;67337.25;4992365;28;20054;-78
2022/11/13 02:29:35;;;;;;;38.70;30.98;;;;;;;5.15;100.00;67350.25;4997596;28;20517;-77
2022/11/13 02:32:01;;;;;;;36.17;29.15;;;;;;;5.15;100.00;67347.59;4997994;28;20168;-77
2022/11/13 02:34:26;;;;;;;37.30;29.83;;;;;;;5.07;100.00;67338.59;5000822;28;20062;-77
2022/11/13 02:36:51;;;;;;;36.47;28.88;;;;;;;5.08;100.00;67339.72;5007575;28;20049;-77
2022/11/13 02:39:17;;;;;;;35.33;29.55;;;;;;;5.07;100.00;67339.16;5010136;28;20037;-77
2022/11/13 02:41:42;;;;;;;35.97;29.80;;;;;;;5.03;100.00;67336.69;5000161;28;20054;-77
2022/11/13 02:44:07;;;;;;;36.03;29.58;;;;;;;4.97;100.00;67328.41;4990864;28;20408;-77
2022/11/13 02:46:33;;;;;;;35.28;29.25;;;;;;;;;;4989485;28;20070;-77
2022/11/13 02:48:58;;;;;;;39.83;32.13;;;;;;;;;;4990106;28;20104;-77
2022/11/13 02:51:24;;;;;;;38.42;31.85;;;;;;;5.02;100.00;67336.13;4990016;28;20131;-78
2022/11/13 02:53:49;;;;;;;38.67;29.60;;;;;;;;;;4990491;28;20038;-78
2022/11/13 02:56:15;;;;;;;38.85;30.60;;;;;;;5.07;100.00;67339.16;4991769;28;20409;-78
2022/11/13 02:58:40;;;;;;;40.05;31.63;;;;;;;5.03;100.00;67334.63;4990544;28;20042;-79
2022/11/13 03:01:06;;;;;;;38.30;31.38;;;;;;;;;;4990957;28;20042;-77
2022/11/13 03:03:31;;;;;;;36.88;30.60;;;;;;;5.02;100.00;67333.50;4990276;28;20050;-78
2022/11/13 03:05:56;;;;;;;39.55;31.45;;;;;;;5.01;100.00;67332.38;4990541;28;20445;-76
2022/11/13 03:08:24;;;;;;;36.42;31.13;;;;;;;5.02;100.00;67333.50;4990203;28;20042;-77
2022/11/13 03:10:50;;;;;;;40.20;30.58;;;;;;;5.05;100.00;67336.88;4989273;28;20042;-78
2022/11/13 03:13:16;;;;;;;35.90;30.55;;;;;;;5.01;100.00;67335.00;4988958;28;20050;-77
2022/11/13 03:15:41;;;;;;;36.72;29.77;;;;;;;5.02;100.00;67336.13;4989792;28;20074;-76
2022/11/13 03:18:06;;;;;;;39.45;29.85;;;;;;;;;;5002063;28;20096;-78
2022/11/13 03:20:34;;;;;;;35.65;28.05;;;;;;;5.02;100.00;67332.94;5001648;28;20042;-77
2022/11/13 03:22:59;;;;;;;36.80;28.95;;;;;;;5.01;100.00;67334.44;4987494;28;20042;-77
2022/11/13 03:25:25;;;;;;;38.88;30.88;;;;;;;5.01;100.00;67335.00;4989439;28;20104;-78
2022/11/13 03:27:50;;;;;;;37.67;30.15;;;;;;;;;;4990836;28;20042;-78
2022/11/13 03:30:15;;;;;;;38.83;29.73;;;;;;;5.02;100.00;67333.50;4991471;28;20054;-80
2022/11/13 03:32:41;;;;;;;36.70;30.02;;;;;;;5.04;100.00;67335.19;4994488;28;20081;-80
2022/11/13 03:35:06;;;;;;;36.30;28.50;;;;;;;;;;4994661;28;20037;-80
2022/11/13 03:37:32;;;;;;;35.20;29.15;;;;;;;5.04;100.00;67335.19;4988462;28;20386;-79
2022/11/13 03:39:57;;;;;;;36.05;28.35;;;;;;;5.11;100.00;67343.66;4999565;28;20084;-80
2022/11/13 03:42:22;;;;;;;32.97;27.77;;;;;;;5.10;100.00;67342.53;4999812;28;20039;-80
2022/11/13 03:44:48;;;;;;;33.67;28.48;;;;;;;5.13;100.00;67348.56;5000981;28;20034;-81
2022/11/13 03:47:14;;;;;;;34.53;26.27;;;;;;;5.13;100.00;67345.38;5001004;28;20057;-82
2022/11/13 03:49:39;;;;;;;33.47;25.92;;;;;;;5.08;100.00;67340.28;4999330;28;20102;-81
2022/11/13 03:52:04;;;;;;;35.92;27.25;;;;;;;5.09;100.00;67344.06;5000927;28;20037;-81
2022/11/13 03:54:30;;;;;;;34.22;26.58;;;;;;;5.08;100.00;67342.91;5003781;28;20065;-82
2022/11/13 03:56:56;;;;;;;36.13;27.13;;;;;;;5.14;100.00;67347.03;5004008;28;20394;-82
2022/11/13 03:59:21;;;;;;;34.45;25.63;;;;;;;5.10;100.00;67347.81;5004234;28;20042;-82
2022/11/13 04:01:47;;;;;;;34.53;25.90;;;;;;;5.06;100.00;67338.00;5004259;28;20068;-80
2022/11/13 04:04:12;;;;;;;33.95;26.40;;;;;;;5.08;100.00;67339.72;5004161;28;20054;-84
2022/11/13 04:06:37;;;;;;;33.75;26.33;;;;;;;;;;5002999;28;20054;-81
2022/11/13 04:09:02;;;;;;;34.15;25.55;;;;;;;;;;4996657;28;20631;-80
2022/11/13 04:11:28;;;;;;;33.67;24.55;;;;;;;4.95;100.00;67326.16;5003953;28;20042;-83
2022/11/13 04:13:53;;;;;;;32.75;25.65;;;;;;;4.90;100.00;67319.94;5004141;28;20042;-81
2022/11/13 04:16:18;;;;;;;34.22;26.90;;;;;;;4.82;100.00;67314.09;5002804;28;20050;-81
2022/11/13 04:18:44;;;;;;;31.50;26.42;;;;;;;;;;5005007;28;20042;-81
2022/11/13 04:21:09;;;;;;;33.92;25.05;;;;;;;4.76;100.00;67304.69;5006867;28;20034;-81
2022/11/13 04:23:34;;;;;;;38.30;25.85;;;;;;;4.77;100.00;67305.25;5010824;28;20046;-83
2022/11/13 04:26:00;;;;;;;31.77;25.63;;;;;;;4.70;100.00;67293.22;5022205;28;20045;-83
2022/11/13 04:28:25;;;;;;;35.70;28.10;;;;;;;4.75;100.00;67308.84;5011751;28;20034;-83
2022/11/13 04:30:54;;;;;;;34.20;25.75;;;;;;;4.65;100.00;67295.47;5011098;28;20066;-80
2022/11/13 04:33:20;;;;;;;34.53;27.75;;;;;;;4.56;100.00;67282.13;4992444;28;20045;-82
2022/11/13 04:35:45;;;;;;;32.35;26.70;;;;;;;4.55;100.00;67284.19;5004089;28;20039;-83
2022/11/13 04:38:11;;;;;;;35.58;26.67;;;;;;;4.49;100.00;67280.63;5009186;28;20081;-82
2022/11/13 04:40:38;;;;;;;34.03;27.50;;;;;;;4.47;100.00;67272.53;5017337;28;20107;-82
2022/11/13 04:43:04;;;;;;;34.75;27.08;;;;;;;4.48;100.00;67273.66;5010123;28;20034;-82
2022/11/13 04:45:29;;;;;;;35.90;28.35;;;;;;;4.52;100.00;67278.19;5017428;28;20371;-82
2022/11/13 04:47:54;;;;;;;35.72;23.45;;;;;;;4.40;100.00;67264.63;5005119;28;20023;-79
2022/11/13 04:50:20;;;;;;;30.90;25.65;;;;;;;4.38;100.00;67265.00;5004340;28;20042;-80
2022/11/13 04:52:45;;;;;;;37.30;26.92;;;;;;;;;;5004387;28;20486;-83
2022/11/13 04:55:11;;;;;;;35.55;26.63;;;;;;;4.41;100.00;67265.75;5013083;28;20067;-81
2022/11/13 04:57:37;;;;;;;35.85;28.48;;;;;;;4.44;100.00;67264.44;5023156;28;20053;-82
2022/11/13 05:00:07;;;;;;;36.60;26.63;;;;;;;4.45;100.00;67272.91;5011529;28;20517;-81
2022/11/13 05:02:32;;;;;;;36.38;27.45;;;;;;;4.41;100.00;67265.75;5001804;28;20034;-82
2022/11/13 05:04:58;;;;;;;36.05;28.23;;;;;;;4.42;100.00;67269.50;4999440;28;20042;-81
2022/11/13 05:07:25;;;;;;;35.65;27.35;;;;;;;4.45;100.00;67270.25;5000506;28;20046;-80
2022/11/13 05:09:50;;;;;;;36.80;28.52;;;;;;;4.41;100.00;67271.03;4999604;28;20102;-82
2022/11/13 05:12:16;;;;;;;35.00;28.15;;;;;;;4.37;100.00;67261.78;4998254;28;20545;-83
2022/11/13 05:14:41;;;;;;;36.72;28.75;;;;;;;4.31;100.00;67255.03;5000046;28;20042;-80
2022/11/13 05:17:09;;;;;;;32.13;26.92;;;;;;;4.28;100.00;67251.63;4995783;28;20042;-83
2022/11/13 05:19:34;;;;;;;39.45;29.52;;;;;;;4.23;100.00;67246.56;4999071;28;20477;-82
2022/11/13 05:22:00;;;;;;;36.35;27.67;;;;;;;4.22;100.00;67244.88;4996984;28;20042;-81
2022/11/13 05:24:25;;;;;;;32.75;27.33;;;;;;;4.01;100.00;67221.72;5008102;28;20621;-81
2022/11/13 05:26:51;;;;;;;35.50;27.48;;;;;;;3.97;100.00;67217.78;4999962;28;20046;-82
2022/11/13 05:29:17;;;;;;;35.55;26.63;;;;;;;3.88;100.00;67209.69;4998340;28;20433;-81
2022/11/13 05:31:42;;;;;;;33.50;25.67;;;;;;;3.80;100.00;67198.63;4996116;28;20042;-79
2022/11/13 05:34:07;;;;;;;34.58;25.55;;;;;;;;;;4996091;28;20046;-79
2022/11/13 05:36:33;;;;;;;32.45;26.88;;;;;;;3.76;100.00;67196.72;4994586;28;20042;-80
2022/11/13 05:38:58;;;;;;;36.60;27.58;;;;;;;;;;4991760;28;20031;-79
2022/11/13 05:41:24;;;;;;;32.55;23.50;;;;;;;3.53;100.00;67171.91;4995466;28;20409;-80
2022/11/13 05:43:50;;;;;;;33.00;27.83;;;;;;;3.48;100.00;67163.06;4995140;28;20601;-79
2022/11/13 05:46:21;;;;;;;37.65;27.65;;;;;;;3.39;100.00;67156.09;4995714;28;20049;-82
2022/11/13 05:48:51;;;;;;;33.97;27.88;;;;;;;3.34;100.00;67151.03;4993790;28;20091;-82
2022/11/13 05:51:20;;;;;;;37.55;30.48;;;;;;;3.31;100.00;67145.03;5000140;28;20112;-80
2022/11/13 05:53:46;;;;;;;37.28;29.15;;;;;;;3.35;100.00;67154.22;4997829;28;20103;-82
2022/11/13 05:56:18;;;;;;;35.67;27.10;;;;;;;3.29;100.00;67142.22;4998098;28;20034;-80
2022/11/13 05:58:45;;;;;;;36.33;27.85;;;;;;;3.25;100.00;67137.69;4998829;28;20046;-79
2022/11/13 06:01:16;;;;;;;35.35;29.45;;;;;;;3.17;100.00;67129.81;5001497;28;20042;-80
2022/11/13 06:03:43;;;;;;;37.65;28.80;;;;;;;3.19;100.00;67136.75;5003200;28;20118;-81
2022/11/13 06:06:11;;;;;;;33.33;25.63;;;;;;;3.16;100.00;67133.94;5001747;28;20038;-81
2022/11/13 06:08:37;;;;;;;34.90;26.98;;;;;;;3.15;100.00;67126.97;5004267;28;20042;-83
2022/11/13 06:11:06;;;;;;;35.75;27.42;;;;;;;3.11;100.00;67122.47;5003769;28;20098;-80
2022/11/13 06:13:32;;;;;;;39.40;28.67;;;;;;;3.05;100.00;67116.28;5004668;28;20038;-82
2022/11/13 06:16:06;;;;;;;35.78;27.05;;;;;;;3.01;100.00;67111.75;5003822;28;20064;-80
2022/11/13 06:18:32;;;;;;;34.10;27.70;;;;;;;2.93;100.00;67103.31;5004866;28;20045;-80
2022/11/13 06:21:04;;;;;;;34.22;26.60;;;;;;;2.83;100.00;67092.03;5004473;28;20046;-82
2022/11/13 06:23:35;;;;;;;32.30;27.08;;;;;;;2.78;100.00;67091.66;5004720;28;20050;-81
2022/11/13 06:26:02;;;;;;;35.60;28.80;;;;;;;2.77;100.00;67090.53;5005214;28;20042;-80
2022/11/13 06:28:28;;;;;;;35.40;26.58;;;;;;;2.85;100.00;67094.28;5006446;28;20046;-80
2022/11/13 06:30:54;;;;;;;35.20;27.88;;;;;;;2.85;100.00;67093.72;5015637;28;20038;-80
2022/11/13 06:33:19;;;;;;;35.15;26.73;;;;;;;2.85;100.00;67098.97;5006642;28;20047;-81
2022/11/13 06:35:44;;;;;;;33.80;26.85;;;;;;;2.91;100.00;67100.50;5006315;28;20030;-82
2022/11/13 06:38:10;;;;;;;33.08;26.25;;;;;;;2.79;100.00;67090.16;5003178;28;20046;-82
2022/11/13 06:40:37;;;;;;;33.20;25.67;;;;;;;2.67;100.00;67074.00;5005637;28;20054;-82
2022/11/13 06:43:02;;;;;;;32.65;25.50;;;;;;;2.72;100.00;67084.88;5007707;28;20121;-84
2022/11/13 06:45:28;;;;;;;35.58;27.85;;;;;;;2.80;100.00;67088.66;5012809;28;20637;-81
2022/11/13 06:47:54;;;;;;;36.17;28.42;;;;;;;2.84;100.00;67095.78;5024972;28;20129;-82
2022/11/13 06:50:19;;;;;;;36.58;27.65;;;;;;;2.88;100.00;67097.09;5017861;28;20062;-82
2022/11/13 06:52:44;;;;;;;29.45;24.08;;;;;;;2.75;100.00;67085.63;5005295;28;20057;-82
2022/11/13 06:55:10;;;;;;;32.92;26.05;;;;;;;2.69;100.00;67071.00;5006944;28;20030;-80
2022/11/13 06:57:35;;;;;;;36.72;25.65;;;;;;;2.70;100.00;67080.00;5003647;28;20066;-82
2022/11/13 07:00:00;;;;;;;30.52;24.05;;;;;;;2.65;100.00;67072.31;5011033;28;20045;-82
2022/11/13 07:02:26;;;;;;;33.40;25.02;;;;;;;2.73;100.00;67083.38;5008416;28;20050;-81
2022/11/13 07:04:51;;;;;;;31.15;23.60;;;;;;;2.60;100.00;67066.66;5009578;28;20042;-83
2022/11/13 07:07:16;;;;;;;30.70;24.05;;;;;;;2.56;100.00;67064.22;5007170;28;20046;-83
2022/11/13 07:09:42;;;;;;;31.00;25.15;;;;;;;2.54;100.00;67059.34;5006134;28;20026;-83
2022/11/13 07:12:07;;;;;;;29.67;23.58;;;;;;;2.52;100.00;67060.28;5004562;28;20161;-81
2022/11/13 07:14:32;;;;;;;32.70;25.75;;;;;;;2.66;100.00;67072.88;5000113;28;20045;-82
2022/11/13 07:16:58;;;;;;;35.05;25.63;;;;;;;2.60;100.00;67071.38;4999244;28;20054;-82
2022/11/13 07:19:23;;;;;;;31.10;24.20;;;;;;;2.61;100.00;67069.84;5001188;28;20034;-80
2022/11/13 07:21:48;;;;;;;32.15;24.70;;;;;;;2.61;100.00;67067.22;5003181;28;20053;-82
2022/11/13 07:24:14;;;;;;;34.10;24.88;;;;;;;2.59;100.00;67070.81;4997477;28;20066;-82
2022/11/13 07:26:39;;;;;;;31.65;24.10;;;;;;;2.63;100.00;67069.50;4989357;28;20137;-81
2022/11/13 07:29:04;;;;;;;32.70;25.35;;;;;;;2.63;100.00;67072.13;4991040;28;20038;-79
2022/11/13 07:31:30;;;;;;;30.08;24.83;;;;;;;2.63;100.00;67074.75;4991992;28;20091;-80
2022/11/13 07:33:55;;;;;;;31.52;24.67;;;;;;;2.61;100.00;67067.78;4993222;28;20106;-80
2022/11/13 07:36:20;;;;;;;38.72;28.35;;;;;;;2.71;100.00;67081.13;4990360;28;20050;-79
2022/11/13 07:38:46;;;;;;;37.65;28.33;;;;;;;2.74;100.00;67086.59;4988844;28;20030;-79
2022/11/13 07:41:11;;;;;;;38.33;28.23;;;;;;;2.77;100.00;67087.91;4988309;28;20042;-80
2022/11/13 07:43:37;;;;;;;35.95;26.98;;;;;;;2.79;100.00;67087.53;4990358;28;20047;-79
2022/11/13 07:46:02;;;;;;;31.00;25.10;;;;;;;2.83;100.00;67092.03;4996499;28;20453;-81
2022/11/13 07:48:27;;;;;;;39.20;28.80;;;;;;;2.93;100.00;67103.31;4991793;28;20045;-80
2022/11/13 07:50:53;;;;;;;33.00;27.13;;;;;;;3.06;100.00;67117.41;4988013;28;20046;-79
2022/11/13 07:53:20;;;;;;;37.67;29.77;;;;;;;3.23;100.00;67136.00;4981642;28;20634;-80
2022/11/13 07:55:46;;;;;;;37.53;28.05;;;;;;;3.40;100.00;67154.63;4988677;28;20035;-79
2022/11/13 07:58:11;;;;;;;34.75;26.52;;;;;;;3.54;100.00;67169.81;4988938;28;20042;-80
2022/11/13 08:00:37;;;;;;;34.95;26.77;;;;;;;3.65;100.00;67182.22;4989855;28;20042;-81
2022/11/13 08:03:08;;;;;;;32.78;25.92;;;;;;;3.72;100.00;67190.16;4989425;28;20494;-80
2022/11/13 08:05:33;;;;;;;31.15;25.45;;;;;;;;;;4988096;28;20054;-78
2022/11/13 08:07:59;;;;;;;29.00;24.67;;;;;;;3.95;100.00;67214.97;4990257;28;20038;-81
2022/11/13 08:10:25;;;;;;;31.60;24.25;;;;;;;4.11;100.00;67233.00;4989749;28;20057;-79
2022/11/13 08:12:59;;;;;;;26.88;21.98;;;;;;;4.34;100.00;67258.41;4990684;28;20038;-80
2022/11/13 08:15:24;;;;;;;29.08;21.85;;;;;;;4.48;100.00;67276.28;4990688;28;20445;-79
2022/11/13 08:17:54;;;;;;;33.08;25.92;;;;;;;4.65;100.00;67292.84;4989144;28;20169;-81
2022/11/13 08:20:20;;;;;;;24.60;20.08;;;;;;;4.85;100.00;67309.03;4987784;28;20122;-80
2022/11/13 08:22:45;;;;;;;26.17;19.77;;;;;;;5.03;100.00;67334.63;4987605;28;20117;-80
2022/11/13 08:25:11;;;;;;;23.33;18.73;;;;;;;5.17;100.00;67350.44;4988481;28;20057;-79
2022/11/13 08:27:37;;;;;;;23.63;18.15;;;;;;;5.33;100.00;67367.41;4992204;28;20154;-81
2022/11/13 08:30:03;;;;;;;20.58;16.65;;;;;;;5.47;100.00;67377.94;4990626;28;20042;-82
2022/11/13 08:32:28;;;;;;;20.33;17.27;;;;;;;5.66;100.00;67404.09;4988804;28;20044;-83
2022/11/13 08:34:53;;;;;;;19.42;15.40;;;;;;;5.79;100.00;67418.25;4992864;28;20048;-82
2022/11/13 08:37:19;;;;;;;18.00;15.40;;;;;;;5.83;100.00;67425.97;4989121;28;20054;-81
2022/11/13 08:39:44;;;;;;;17.45;14.50;;;;;;;;;;4988796;28;20047;-82
2022/11/13 08:42:09;;;;;;;18.10;14.10;;;;;;;6.07;100.00;67449.91;4990342;28;20508;-80
2022/11/13 08:44:35;;;;;;;19.48;14.88;;;;;;;6.20;100.00;67464.03;4992470;28;20542;-80
2022/11/13 08:47:00;;;;;;;19.02;13.98;;;;;;;;;;4990708;28;20284;-82
2022/11/13 08:49:25;;;;;;;18.33;14.15;;;;;;;;;;5003418;28;20414;-81
2022/11/13 08:51:50;;;;;;;16.27;12.60;;;;;;;6.73;100.00;67524.91;4992047;28;20042;-81
2022/11/13 08:54:16;;;;;;;17.80;13.13;;;;;;;6.84;100.00;67540.00;4986487;28;20046;-79
2022/11/13 08:56:42;;;;;;;14.52;12.98;;;;;;;6.94;100.00;67548.69;4989953;28;20403;-80
2022/11/13 08:59:08;;;;;;;15.40;12.13;;;;;;;7.11;100.00;67567.34;4989070;28;20038;-80
2022/11/13 09:01:33;;;;;;;15.57;12.18;;;;;;;7.23;99.38;67577.72;4987980;28;20054;-80
2022/11/13 09:03:59;;;;;;;16.75;12.18;;;;;;;;;;4988192;28;20030;-80
2022/11/13 09:06:24;;;;;;;16.08;12.32;;;;;;;;;;4986194;28;20461;-80
2022/11/13 09:08:49;;;;;;;15.07;11.07;;;;;;;7.72;97.04;67634.69;4986716;28;20046;-80
2022/11/13 09:11:15;;;;;;;13.50;11.23;;;;;;;7.83;95.36;67644.50;4994658;28;20041;-81
2022/11/13 09:13:40;;;;;;;13.90;11.57;;;;;;;7.95;95.18;67657.53;4989910;28;20052;-80
2022/11/13 09:16:06;;;;;;;12.73;10.60;;;;;;;;;;4996314;28;20401;-80
2022/11/13 09:18:31;;;;;;;14.02;10.75;;;;;;;8.20;93.13;67685.28;5001333;28;20050;-80
2022/11/13 09:21:01;;;;;;;12.68;10.40;;;;;;;8.30;92.76;67690.72;5003838;28;20109;-80
2022/11/13 09:23:27;;;;;;;13.43;10.50;;;;;;;;;;5000406;28;20062;-80
2022/11/13 09:25:52;;;;;;;14.65;11.05;;;;;;;8.41;91.59;67708.50;5004438;28;20049;-79
2022/11/13 09:28:18;;;;;;;14.10;9.90;;;;;;;8.58;91.92;67727.22;4999829;28;20045;-80
2022/11/13 09:30:43;;;;;;;12.13;9.82;;;;;;;;;;4993847;28;20046;-80
2022/11/13 09:33:09;;;;;;;15.13;10.57;;;;;;;8.79;90.86;67750.44;4994314;28;20049;-80
2022/11/13 09:35:34;;;;;;;12.55;10.43;;;;;;;8.90;89.98;67762.34;5011159;28;20070;-80
2022/11/13 09:38:04;;;;;;;11.15;9.77;;;;;;;9.05;89.67;67774.00;4990884;28;20038;-79
2022/11/13 09:40:34;;;;;;;13.43;10.57;;;;;;;9.07;89.24;67776.28;4989549;28;20126;-80
2022/11/13 09:43:01;;;;;;;13.32;11.10;;;;;;;;;;4987035;28;20045;-80
2022/11/13 09:45:28;;;;;;;12.40;9.65;;;;;;;9.32;88.38;67808.78;4991626;28;20627;-80
2022/11/13 09:47:56;;;;;;;10.70;8.88;;;;;;;9.45;87.32;67824.09;4995556;28;20551;-79
2022/11/13 09:50:26;;;;;;;11.40;8.50;;;;;;;9.51;86.94;67830.34;4994192;28;20038;-79
2022/11/13 09:52:52;;;;;;;9.88;8.45;;;;;;;;;;4994080;28;20038;-79
2022/11/13 09:55:19;;;;;;;10.52;7.78;;;;;;;;;;4994984;28;20041;-79
2022/11/13 09:57:48;;;;;;;10.18;8.32;;;;;;;;;;4996489;28;20414;-80
2022/11/13 10:00:15;;;;;;;9.93;8.23;;;;;;;;;;4986373;28;20034;-80
2022/11/13 10:03:00;;;;;;;9.48;7.85;;;;;;;9.99;85.31;67875.66;4989898;28;20538;-80
2022/11/13 10:05:58;;;;;;;10.70;7.60;;;;;;;;;;4990463;28;20057;-80
2022/11/13 10:08:28;;;;;;;9.63;7.53;;;;;;;10.15;84.88;67896.47;4991303;28;20050;-79
2022/11/13 10:11:31;;;;;;;7.75;6.95;;;;;;;10.29;83.58;67917.13;4989276;28;20594;-79
2022/11/13 10:13:58;;;;;;;9.30;7.07;;;;;;;;;;4984539;28;20038;-79
2022/11/13 10:16:32;;;;;;;9.60;7.38;;;;;;;10.51;82.75;67936.19;4988457;28;20054;-79
2022/11/13 10:19:09;;;;;;;8.93;6.68;;;;;;;10.68;82.09;67954.38;4996159;28;21205;-79
2022/11/13 10:21:45;;;;;;;8.93;7.47;;;;;;;10.77;82.19;67965.13;4987184;28;20046;-80
2022/11/13 10:24:15;;;;;;;9.50;7.45;;;;;;;;;;4990048;28;20069;-79
2022/11/13 10:26:41;;;;;;;9.35;6.63;;;;;;;10.92;81.10;67976.25;4987090;28;20042;-79
2022/11/13 10:29:14;;;;;;;9.65;7.30;;;;;;;10.99;80.42;67988.97;4993989;28;20183;-79
2022/11/13 10:31:51;;;;;;;10.68;7.55;;;;;;;11.17;80.16;68008.84;5011876;28;20045;-80
2022/11/13 10:34:17;;;;;;;9.45;7.00;;;;;;;11.02;79.19;67987.06;4993225;28;20038;-78
2022/11/13 10:37:04;;;;;;;8.27;6.78;;;;;;;10.98;78.65;67993.72;4993970;28;20038;-79
2022/11/13 10:39:30;;;;;;;7.15;6.43;;;;;;;11.04;79.97;67995.22;4994048;28;20085;-80
2022/11/13 10:41:55;;;;;;;8.38;7.40;;;;;;;11.15;79.42;68007.13;5009708;28;20070;-79
2022/11/13 10:44:24;;;;;;;9.05;7.15;;;;;;;11.28;79.03;68021.91;4993250;28;20034;-78
2022/11/13 10:46:50;;;;;;;;;;;;;;;11.42;78.82;68037.22;4996367;28;20046;-80
2022/11/13 10:49:20;;;;;;;8.55;6.97;;;;;;;;;;4992647;28;19920;-79
2022/11/13 10:51:54;;;;;;;10.55;6.95;;;;;;;;;;5005201;28;20042;-79
2022/11/13 10:54:30;;;;;;;8.25;6.55;;;;;;;11.83;78.62;68087.44;4994506;28;20538;-79
2022/11/13 10:57:17;;;;;;;8.32;6.07;;;;;;;12.01;77.44;68107.88;4993474;28;20034;-79
2022/11/13 10:59:44;;;;;;;10.48;6.68;;;;;;;12.17;76.54;68125.50;4973413;28;20778;-80
2022/11/13 11:02:24;;;;;;;9.05;6.63;;;;;;;12.23;75.73;68127.00;4992209;28;20042;-79
2022/11/13 11:05:03;;;;;;;7.72;6.70;;;;;;;12.19;76.40;68123.00;4986032;28;20057;-78
2022/11/13 11:07:33;;;;;;;7.25;6.25;;;;;;;12.30;75.09;68134.94;4996813;28;20426;-80
2022/11/13 11:09:58;;;;;;;9.13;6.60;;;;;;;12.35;75.14;68140.63;4991775;28;20132;-80
2022/11/13 11:12:24;;;;;;;7.35;6.03;;;;;;;12.52;75.72;68158.81;4989954;28;20062;-78
2022/11/13 11:14:58;;;;;;;9.48;6.82;;;;;;;12.65;74.26;68173.56;4991663;28;20038;-77
2022/11/13 11:17:30;;;;;;;8.98;6.00;;;;;;;12.71;74.97;68179.81;4989601;28;20087;-80
2022/11/13 11:20:17;;;;;;;7.93;6.53;;;;;;;12.72;73.81;68180.97;4996173;28;20034;-79
2022/11/13 11:22:45;;;;;;;8.23;6.28;;;;;;;12.81;75.22;68191.19;4989960;28;20720;-79
2022/11/13 11:25:21;;;;;;;8.13;6.32;;;;;;;12.93;74.16;68204.84;4991259;28;20049;-79
2022/11/13 11:27:50;;;;;;;7.22;5.90;;;;;;;;;;4993648;28;20678;-78
2022/11/13 11:30:25;;;;;;;8.80;6.03;;;;;;;13.19;74.67;68231.16;4991261;28;20100;-80
2022/11/13 11:33:02;;;;;;;9.02;6.43;;;;;;;13.33;74.28;68246.53;4990544;28;20651;-81
2022/11/13 11:35:55;;;;;;;9.23;6.30;;;;;;;13.52;74.66;68270.81;4989956;28;20042;-79
2022/11/13 11:38:50;;;;;;;9.10;6.35;;;;;;;13.66;73.58;68282.94;4988574;28;20076;-80
2022/11/13 11:41:22;;;;;;;7.40;6.15;;;;;;;13.80;72.63;68300.97;4983490;28;20081;-80
2022/11/13 11:43:50;;;;;;;8.00;6.15;;;;;;;;;;4991260;28;20528;-80